9301 Mst — MST — position and weather

sailwx.info

Track history (hours):
 
Tides and Currents Weather Stations Pressure Air Temp Water Temp Dewpoint Dewpoint Depression Visibility Wind Speed Wind Dir Waves Ship Positions

9301 Mst

Last reported at 2017-Dec-14 18:31 UTC. Time now 2017-Dec-18 14:35 UTC.
Position N 34°09' W 119°13'.

Length 45 m; draft 2.1 m.

Type: Military. MMSI: 369970277.

Date/timePositionNaut miles runAvg speedWind from/ knotsBaromVisibWave heightAir tempDewpointWater temp
2017-Dec-14 18:31N 34°09' W 119°13'0 0.0
2017-Dec-14 18:00N 34°09' W 119°13'0 0.0
2017-Dec-14 17:30N 34°09' W 119°13'0 0.0
2017-Dec-14 17:00N 34°09' W 119°13'0 0.0
2017-Dec-14 16:29N 34°09' W 119°13'0 0.0
2017-Dec-14 16:00N 34°09' W 119°13'0 0.0
2017-Dec-14 04:17N 34°09' W 119°13'0 0.0
2017-Dec-14 03:59N 34°09' W 119°13'0 0.0
2017-Dec-14 03:30N 34°09' W 119°13'0 0.0
2017-Dec-14 03:00N 34°09' W 119°13'0 0.0
2017-Dec-14 02:30N 34°09' W 119°13'0 0.0
2017-Dec-14 02:00N 34°09' W 119°13'0 0.0
2017-Dec-14 01:30N 34°09' W 119°13'0 0.0
2017-Dec-14 00:58N 34°09' W 119°13'0 0.0
2017-Dec-14 00:30N 34°09' W 119°13'0 0.0
2017-Dec-13 23:59N 34°09' W 119°13'0 0.0
2017-Dec-13 23:30N 34°09' W 119°13'0 0.0
2017-Dec-13 23:00N 34°09' W 119°13'0 0.0
2017-Dec-13 22:29N 34°09' W 119°13'0 0.0
2017-Dec-13 21:53N 34°09' W 119°13'0 0.0
2017-Dec-13 21:30N 34°09' W 119°13'0 0.0
2017-Dec-13 20:58N 34°09' W 119°13'0 0.0
2017-Dec-13 20:27N 34°09' W 119°13'0 0.0
2017-Dec-13 19:59N 34°09' W 119°13'0 0.0
2017-Dec-13 19:30N 34°09' W 119°13'0 0.0
2017-Dec-13 18:59N 34°09' W 119°13'0 0.0
2017-Dec-13 18:24N 34°09' W 119°13'0 0.0
2017-Dec-13 17:59N 34°09' W 119°13'0 0.0
2017-Dec-13 17:30N 34°09' W 119°13'0 0.0
2017-Dec-13 17:00N 34°09' W 119°13'  
2017-Dec-09 00:58N 34°09' W 119°13'0 0.0
2017-Dec-09 00:30N 34°09' W 119°13'0 0.3
2017-Dec-08 23:59N 34°09' W 119°13'3 6.0
2017-Dec-08 23:28N 34°06' W 119°14'4 7.9
2017-Dec-08 23:00N 34°03' W 119°16'4 7.9
2017-Dec-08 22:30N 33°59' W 119°18'4 7.6
2017-Dec-08 21:59N 33°55' W 119°19'4 7.6
2017-Dec-08 21:30N 33°52' W 119°21'4 7.9
2017-Dec-08 20:57N 33°48' W 119°23'1 1.5
2017-Dec-08 20:29N 33°47' W 119°23'0 0.3
2017-Dec-08 19:59N 33°47' W 119°23'0 0.2
2017-Dec-08 19:31N 33°47' W 119°23'2 3.5
2017-Dec-08 19:01N 33°46' W 119°22'2 4.1
2017-Dec-08 18:30N 33°44' W 119°20'2 4.1
2017-Dec-08 17:54N 33°42' W 119°19'2 4.0
2017-Dec-08 17:29N 33°41' W 119°18'2 4.3
2017-Dec-08 17:00N 33°39' W 119°16'1 3.0
2017-Dec-08 16:30N 33°38' W 119°15'1 1.2
2017-Dec-08 15:58N 33°38' W 119°14'0 0.3
2017-Dec-08 15:30N 33°38' W 119°14'1 1.9
2017-Dec-08 14:55N 33°38' W 119°16'0 0.8
2017-Dec-08 14:30N 33°38' W 119°15'0 0.8
2017-Dec-08 14:01N 33°38' W 119°16'1 2.3
2017-Dec-08 13:30N 33°38' W 119°17'1 2.4
2017-Dec-08 13:01N 33°38' W 119°19'2 3.1
2017-Dec-08 12:30N 33°39' W 119°19'2 3.1
2017-Dec-08 12:00N 33°41' W 119°19'2 3.1
2017-Dec-08 11:30N 33°42' W 119°20'2 3.1
2017-Dec-08 11:00N 33°44' W 119°20'2 3.1
2017-Dec-08 10:30N 33°45' W 119°20'2 3.7
2017-Dec-08 10:01N 33°47' W 119°20'3 5.2
2017-Dec-08 09:30N 33°50' W 119°19'3 5.3
2017-Dec-08 09:00N 33°52' W 119°18'3 5.7
2017-Dec-08 08:30N 33°55' W 119°17'3 6.3
2017-Dec-08 08:00N 33°58' W 119°15'3 6.1
2017-Dec-08 07:30N 34°01' W 119°15'3 6.5
2017-Dec-08 07:00N 34°04' W 119°14'4 7.4
2017-Dec-08 06:30N 34°08' W 119°14'1 2.6
2017-Dec-08 05:57N 34°09' W 119°13'0 0.0
2017-Dec-08 05:30N 34°09' W 119°13'0 0.0
2017-Dec-08 05:00N 34°09' W 119°13'0 0.0
2017-Dec-08 04:30N 34°09' W 119°13'0 0.0
2017-Dec-08 03:59N 34°09' W 119°13'0 0.0
2017-Dec-08 03:29N 34°09' W 119°13'0 0.0
2017-Dec-08 02:58N 34°09' W 119°13'0 0.0
2017-Dec-08 02:30N 34°09' W 119°13'0 0.0
2017-Dec-08 01:59N 34°09' W 119°13'0 0.0
2017-Dec-08 01:30N 34°09' W 119°13'0 0.0
2017-Dec-08 01:00N 34°09' W 119°13'0 0.0
2017-Dec-08 00:31N 34°09' W 119°13'0 0.0
2017-Dec-08 00:00N 34°09' W 119°13'0 0.0
2017-Dec-07 23:30N 34°09' W 119°13'0 0.0
2017-Dec-07 23:01N 34°09' W 119°13'0 0.0
2017-Dec-07 22:29N 34°09' W 119°13'0 0.0
2017-Dec-07 22:00N 34°09' W 119°13'0 0.0
2017-Dec-07 21:30N 34°09' W 119°13'0 0.0
2017-Dec-07 20:57N 34°09' W 119°13'0 0.0
2017-Dec-07 20:21N 34°09' W 119°13'0 0.0
2017-Dec-07 19:57N 34°09' W 119°13'0 0.0
2017-Dec-07 19:29N 34°09' W 119°13'0 0.0
2017-Dec-07 18:59N 34°09' W 119°13'0 0.0
2017-Dec-07 18:30N 34°09' W 119°13'  
Track history (hours):
 
Tides and Currents Weather Stations Pressure Air Temp Water Temp Dewpoint Dewpoint Depression Visibility Wind Speed Wind Dir Waves Ship Positions

9301 Mst

Last reported at 2017-Dec-14 18:31 UTC. Time now 2017-Dec-18 14:35 UTC.
Position N 34°09' W 119°13'.

Length 45 m; draft 2.1 m.

Type: Military. MMSI: 369970277.

Date/timePositionNaut miles runAvg speedWind from/ knotsBaromVisibWave heightAir tempDewpointWater temp
2017-Dec-14 18:31N 34°09' W 119°13'0 0.0
2017-Dec-14 18:00N 34°09' W 119°13'0 0.0
2017-Dec-14 17:30N 34°09' W 119°13'0 0.0
2017-Dec-14 17:00N 34°09' W 119°13'0 0.0
2017-Dec-14 16:29N 34°09' W 119°13'0 0.0
2017-Dec-14 16:00N 34°09' W 119°13'0 0.0
2017-Dec-14 04:17N 34°09' W 119°13'0 0.0
2017-Dec-14 03:59N 34°09' W 119°13'0 0.0
2017-Dec-14 03:30N 34°09' W 119°13'0 0.0
2017-Dec-14 03:00N 34°09' W 119°13'0 0.0
2017-Dec-14 02:30N 34°09' W 119°13'0 0.0
2017-Dec-14 02:00N 34°09' W 119°13'0 0.0
2017-Dec-14 01:30N 34°09' W 119°13'0 0.0
2017-Dec-14 00:58N 34°09' W 119°13'0 0.0
2017-Dec-14 00:30N 34°09' W 119°13'0 0.0
2017-Dec-13 23:59N 34°09' W 119°13'0 0.0
2017-Dec-13 23:30N 34°09' W 119°13'0 0.0
2017-Dec-13 23:00N 34°09' W 119°13'0 0.0
2017-Dec-13 22:29N 34°09' W 119°13'0 0.0
2017-Dec-13 21:53N 34°09' W 119°13'0 0.0
2017-Dec-13 21:30N 34°09' W 119°13'0 0.0
2017-Dec-13 20:58N 34°09' W 119°13'0 0.0
2017-Dec-13 20:27N 34°09' W 119°13'0 0.0
2017-Dec-13 19:59N 34°09' W 119°13'0 0.0
2017-Dec-13 19:30N 34°09' W 119°13'0 0.0
2017-Dec-13 18:59N 34°09' W 119°13'0 0.0
2017-Dec-13 18:24N 34°09' W 119°13'0 0.0
2017-Dec-13 17:59N 34°09' W 119°13'0 0.0
2017-Dec-13 17:30N 34°09' W 119°13'0 0.0
2017-Dec-13 17:00N 34°09' W 119°13'  
2017-Dec-09 00:58N 34°09' W 119°13'0 0.0
2017-Dec-09 00:30N 34°09' W 119°13'0 0.3
2017-Dec-08 23:59N 34°09' W 119°13'3 6.0
2017-Dec-08 23:28N 34°06' W 119°14'4 7.9
2017-Dec-08 23:00N 34°03' W 119°16'4 7.9
2017-Dec-08 22:30N 33°59' W 119°18'4 7.6
2017-Dec-08 21:59N 33°55' W 119°19'4 7.6
2017-Dec-08 21:30N 33°52' W 119°21'4 7.9
2017-Dec-08 20:57N 33°48' W 119°23'1 1.5
2017-Dec-08 20:29N 33°47' W 119°23'0 0.3
2017-Dec-08 19:59N 33°47' W 119°23'0 0.2
2017-Dec-08 19:31N 33°47' W 119°23'2 3.5
2017-Dec-08 19:01N 33°46' W 119°22'2 4.1
2017-Dec-08 18:30N 33°44' W 119°20'2 4.1
2017-Dec-08 17:54N 33°42' W 119°19'2 4.0
2017-Dec-08 17:29N 33°41' W 119°18'2 4.3
2017-Dec-08 17:00N 33°39' W 119°16'1 3.0
2017-Dec-08 16:30N 33°38' W 119°15'1 1.2
2017-Dec-08 15:58N 33°38' W 119°14'0 0.3
2017-Dec-08 15:30N 33°38' W 119°14'1 1.9
2017-Dec-08 14:55N 33°38' W 119°16'0 0.8
2017-Dec-08 14:30N 33°38' W 119°15'0 0.8
2017-Dec-08 14:01N 33°38' W 119°16'1 2.3
2017-Dec-08 13:30N 33°38' W 119°17'1 2.4
2017-Dec-08 13:01N 33°38' W 119°19'2 3.1
2017-Dec-08 12:30N 33°39' W 119°19'2 3.1
2017-Dec-08 12:00N 33°41' W 119°19'2 3.1
2017-Dec-08 11:30N 33°42' W 119°20'2 3.1
2017-Dec-08 11:00N 33°44' W 119°20'2 3.1
2017-Dec-08 10:30N 33°45' W 119°20'2 3.7
2017-Dec-08 10:01N 33°47' W 119°20'3 5.2
2017-Dec-08 09:30N 33°50' W 119°19'3 5.3
2017-Dec-08 09:00N 33°52' W 119°18'3 5.7
2017-Dec-08 08:30N 33°55' W 119°17'3 6.3
2017-Dec-08 08:00N 33°58' W 119°15'3 6.1
2017-Dec-08 07:30N 34°01' W 119°15'3 6.5
2017-Dec-08 07:00N 34°04' W 119°14'4 7.4
2017-Dec-08 06:30N 34°08' W 119°14'1 2.6
2017-Dec-08 05:57N 34°09' W 119°13'0 0.0
2017-Dec-08 05:30N 34°09' W 119°13'0 0.0
2017-Dec-08 05:00N 34°09' W 119°13'0 0.0
2017-Dec-08 04:30N 34°09' W 119°13'0 0.0
2017-Dec-08 03:59N 34°09' W 119°13'0 0.0
2017-Dec-08 03:29N 34°09' W 119°13'0 0.0
2017-Dec-08 02:58N 34°09' W 119°13'0 0.0
2017-Dec-08 02:30N 34°09' W 119°13'0 0.0
2017-Dec-08 01:59N 34°09' W 119°13'0 0.0
2017-Dec-08 01:30N 34°09' W 119°13'0 0.0
2017-Dec-08 01:00N 34°09' W 119°13'0 0.0
2017-Dec-08 00:31N 34°09' W 119°13'0 0.0
2017-Dec-08 00:00N 34°09' W 119°13'0 0.0
2017-Dec-07 23:30N 34°09' W 119°13'0 0.0
2017-Dec-07 23:01N 34°09' W 119°13'0 0.0
2017-Dec-07 22:29N 34°09' W 119°13'0 0.0
2017-Dec-07 22:00N 34°09' W 119°13'0 0.0
2017-Dec-07 21:30N 34°09' W 119°13'0 0.0
2017-Dec-07 20:57N 34°09' W 119°13'0 0.0
2017-Dec-07 20:21N 34°09' W 119°13'0 0.0
2017-Dec-07 19:57N 34°09' W 119°13'0 0.0
2017-Dec-07 19:29N 34°09' W 119°13'0 0.0
2017-Dec-07 18:59N 34°09' W 119°13'0 0.0
2017-Dec-07 18:30N 34°09' W 119°13'  

Dump ship's entire track history